sensor_id;sensor_type;location;lat;lon;timestamp;P1;durP1;ratioP1;P2;durP2;ratioP2
22610;SDS011;11472;45.494;12.142;2022-09-09T00:00:00;5.40;;;3.50;;
22610;SDS011;11472;45.494;12.142;2022-09-09T00:02:08;5.40;;;3.50;;
22610;SDS011;11472;45.494;12.142;2022-09-09T00:03:14;5.40;;;3.50;;
22610;SDS011;11472;45.494;12.142;2022-09-09T00:04:12;5.40;;;3.50;;
22610;SDS011;11472;45.494;12.142;2022-09-09T00:06:13;5.40;;;3.50;;
22610;SDS011;11472;45.494;12.142;2022-09-09T00:08:02;5.40;;;3.50;;
22610;SDS011;11472;45.494;12.142;2022-09-09T00:11:01;5.40;;;3.50;;
22610;SDS011;11472;45.494;12.142;2022-09-09T00:12:06;6.50;;;4.30;;
22610;SDS011;11472;45.494;12.142;2022-09-09T00:14:01;6.50;;;4.30;;
22610;SDS011;11472;45.494;12.142;2022-09-09T00:15:19;6.50;;;4.30;;
22610;SDS011;11472;45.494;12.142;2022-09-09T00:16:15;6.50;;;4.30;;
22610;SDS011;11472;45.494;12.142;2022-09-09T00:17:06;6.50;;;4.30;;
22610;SDS011;11472;45.494;12.142;2022-09-09T00:19:20;6.50;;;4.30;;
22610;SDS011;11472;45.494;12.142;2022-09-09T00:20:10;6.50;;;4.30;;
22610;SDS011;11472;45.494;12.142;2022-09-09T00:21:07;6.50;;;4.30;;
22610;SDS011;11472;45.494;12.142;2022-09-09T00:23:11;6.50;;;4.30;;
22610;SDS011;11472;45.494;12.142;2022-09-09T00:24:00;6.50;;;4.30;;
22610;SDS011;11472;45.494;12.142;2022-09-09T00:25:10;6.50;;;4.30;;
22610;SDS011;11472;45.494;12.142;2022-09-09T00:27:06;7.80;;;4.50;;
22610;SDS011;11472;45.494;12.142;2022-09-09T00:28:01;7.80;;;4.50;;
22610;SDS011;11472;45.494;12.142;2022-09-09T00:30:19;7.80;;;4.50;;
22610;SDS011;11472;45.494;12.142;2022-09-09T00:31:13;7.80;;;4.50;;
22610;SDS011;11472;45.494;12.142;2022-09-09T00:32:18;7.80;;;4.50;;
22610;SDS011;11472;45.494;12.142;2022-09-09T00:33:03;7.80;;;4.50;;
22610;SDS011;11472;45.494;12.142;2022-09-09T00:34:21;7.80;;;4.50;;
22610;SDS011;11472;45.494;12.142;2022-09-09T00:35:05;7.80;;;4.50;;
22610;SDS011;11472;45.494;12.142;2022-09-09T00:36:00;7.80;;;4.50;;
22610;SDS011;11472;45.494;12.142;2022-09-09T00:37:00;7.80;;;4.50;;
22610;SDS011;11472;45.494;12.142;2022-09-09T00:38:08;7.80;;;4.50;;
22610;SDS011;11472;45.494;12.142;2022-09-09T00:39:01;7.80;;;4.50;;
22610;SDS011;11472;45.494;12.142;2022-09-09T00:40:03;7.80;;;4.50;;
22610;SDS011;11472;45.494;12.142;2022-09-09T00:42:08;8.40;;;4.30;;
22610;SDS011;11472;45.494;12.142;2022-09-09T00:45:51;8.40;;;4.30;;
22610;SDS011;11472;45.494;12.142;2022-09-09T00:46:16;8.40;;;4.30;;
22610;SDS011;11472;45.494;12.142;2022-09-09T00:47:05;8.40;;;4.30;;
22610;SDS011;11472;45.494;12.142;2022-09-09T00:48:03;8.40;;;4.30;;
22610;SDS011;11472;45.494;12.142;2022-09-09T00:51:05;8.40;;;4.30;;
22610;SDS011;11472;45.494;12.142;2022-09-09T00:56:12;8.40;;;4.30;;
22610;SDS011;11472;45.494;12.142;2022-09-09T00:58:00;7.40;;;4.20;;
22610;SDS011;11472;45.494;12.142;2022-09-09T01:00:19;7.40;;;4.20;;
22610;SDS011;11472;45.494;12.142;2022-09-09T01:01:11;7.40;;;4.20;;
22610;SDS011;11472;45.494;12.142;2022-09-09T01:02:02;7.40;;;4.20;;
22610;SDS011;11472;45.494;12.142;2022-09-09T01:04:00;7.40;;;4.20;;
22610;SDS011;11472;45.494;12.142;2022-09-09T01:05:06;7.40;;;4.20;;
22610;SDS011;11472;45.494;12.142;2022-09-09T01:07:10;7.40;;;4.20;;
22610;SDS011;11472;45.494;12.142;2022-09-09T01:08:03;7.40;;;4.20;;
22610;SDS011;11472;45.494;12.142;2022-09-09T01:10:03;7.40;;;4.20;;
22610;SDS011;11472;45.494;12.142;2022-09-09T01:11:02;7.40;;;4.20;;
22610;SDS011;11472;45.494;12.142;2022-09-09T01:13:01;8.10;;;4.80;;
22610;SDS011;11472;45.494;12.142;2022-09-09T01:14:13;8.10;;;4.80;;
22610;SDS011;11472;45.494;12.142;2022-09-09T01:15:27;8.10;;;4.80;;
22610;SDS011;11472;45.494;12.142;2022-09-09T01:16:03;8.10;;;4.80;;
22610;SDS011;11472;45.494;12.142;2022-09-09T01:18:06;8.10;;;4.80;;
22610;SDS011;11472;45.494;12.142;2022-09-09T01:19:00;8.10;;;4.80;;
22610;SDS011;11472;45.494;12.142;2022-09-09T01:20:13;8.10;;;4.80;;
22610;SDS011;11472;45.494;12.142;2022-09-09T01:22:09;8.10;;;4.80;;
22610;SDS011;11472;45.494;12.142;2022-09-09T01:24:27;8.10;;;4.80;;
22610;SDS011;11472;45.494;12.142;2022-09-09T01:27:02;8.80;;;4.50;;
22610;SDS011;11472;45.494;12.142;2022-09-09T01:28:03;8.80;;;4.50;;
22610;SDS011;11472;45.494;12.142;2022-09-09T01:29:00;8.80;;;4.50;;
22610;SDS011;11472;45.494;12.142;2022-09-09T01:30:00;8.80;;;4.50;;
22610;SDS011;11472;45.494;12.142;2022-09-09T01:31:00;8.80;;;4.50;;
22610;SDS011;11472;45.494;12.142;2022-09-09T01:32:02;8.80;;;4.50;;
22610;SDS011;11472;45.494;12.142;2022-09-09T01:33:03;8.80;;;4.50;;
22610;SDS011;11472;45.494;12.142;2022-09-09T01:34:01;8.80;;;4.50;;
22610;SDS011;11472;45.494;12.142;2022-09-09T01:35:01;8.80;;;4.50;;
22610;SDS011;11472;45.494;12.142;2022-09-09T01:36:17;8.80;;;4.50;;
22610;SDS011;11472;45.494;12.142;2022-09-09T01:37:09;8.80;;;4.50;;
22610;SDS011;11472;45.494;12.142;2022-09-09T01:38:00;8.80;;;4.50;;
22610;SDS011;11472;45.494;12.142;2022-09-09T01:39:02;8.80;;;4.50;;
22610;SDS011;11472;45.494;12.142;2022-09-09T01:40:00;8.80;;;4.50;;
22610;SDS011;11472;45.494;12.142;2022-09-09T01:41:00;8.80;;;4.50;;
22610;SDS011;11472;45.494;12.142;2022-09-09T01:42:00;5.40;;;4.00;;
22610;SDS011;11472;45.494;12.142;2022-09-09T01:43:00;5.40;;;4.00;;
22610;SDS011;11472;45.494;12.142;2022-09-09T01:44:00;5.40;;;4.00;;
22610;SDS011;11472;45.494;12.142;2022-09-09T01:45:01;5.40;;;4.00;;
22610;SDS011;11472;45.494;12.142;2022-09-09T01:46:01;5.40;;;4.00;;
22610;SDS011;11472;45.494;12.142;2022-09-09T01:47:00;5.40;;;4.00;;
22610;SDS011;11472;45.494;12.142;2022-09-09T01:48:02;5.40;;;4.00;;
22610;SDS011;11472;45.494;12.142;2022-09-09T01:49:02;5.40;;;4.00;;
22610;SDS011;11472;45.494;12.142;2022-09-09T01:50:05;5.40;;;4.00;;
22610;SDS011;11472;45.494;12.142;2022-09-09T01:51:00;5.40;;;4.00;;
22610;SDS011;11472;45.494;12.142;2022-09-09T01:52:00;5.40;;;4.00;;
22610;SDS011;11472;45.494;12.142;2022-09-09T01:53:00;5.40;;;4.00;;
22610;SDS011;11472;45.494;12.142;2022-09-09T01:54:01;5.40;;;4.00;;
22610;SDS011;11472;45.494;12.142;2022-09-09T01:55:00;5.40;;;4.00;;
22610;SDS011;11472;45.494;12.142;2022-09-09T01:56:15;5.40;;;4.00;;
22610;SDS011;11472;45.494;12.142;2022-09-09T01:58:10;7.60;;;3.60;;
22610;SDS011;11472;45.494;12.142;2022-09-09T01:59:24;7.60;;;3.60;;
22610;SDS011;11472;45.494;12.142;2022-09-09T02:00:09;7.60;;;3.60;;
22610;SDS011;11472;45.494;12.142;2022-09-09T02:02:16;7.60;;;3.60;;
22610;SDS011;11472;45.494;12.142;2022-09-09T02:03:05;7.60;;;3.60;;
22610;SDS011;11472;45.494;12.142;2022-09-09T02:04:01;7.60;;;3.60;;
22610;SDS011;11472;45.494;12.142;2022-09-09T02:05:10;7.60;;;3.60;;
22610;SDS011;11472;45.494;12.142;2022-09-09T02:07:00;7.60;;;3.60;;
22610;SDS011;11472;45.494;12.142;2022-09-09T02:08:07;7.60;;;3.60;;
22610;SDS011;11472;45.494;12.142;2022-09-09T02:09:02;7.60;;;3.60;;
22610;SDS011;11472;45.494;12.142;2022-09-09T02:11:07;7.60;;;3.60;;
22610;SDS011;11472;45.494;12.142;2022-09-09T02:12:07;8.60;;;3.70;;
22610;SDS011;11472;45.494;12.142;2022-09-09T02:13:04;8.60;;;3.70;;
22610;SDS011;11472;45.494;12.142;2022-09-09T02:14:05;8.60;;;3.70;;
22610;SDS011;11472;45.494;12.142;2022-09-09T02:15:05;8.60;;;3.70;;
22610;SDS011;11472;45.494;12.142;2022-09-09T02:16:03;8.60;;;3.70;;
22610;SDS011;11472;45.494;12.142;2022-09-09T02:17:08;8.60;;;3.70;;
22610;SDS011;11472;45.494;12.142;2022-09-09T02:18:01;8.60;;;3.70;;
22610;SDS011;11472;45.494;12.142;2022-09-09T02:20:12;8.60;;;3.70;;
22610;SDS011;11472;45.494;12.142;2022-09-09T02:21:00;8.60;;;3.70;;
22610;SDS011;11472;45.494;12.142;2022-09-09T02:22:01;8.60;;;3.70;;
22610;SDS011;11472;45.494;12.142;2022-09-09T02:23:00;8.60;;;3.70;;
22610;SDS011;11472;45.494;12.142;2022-09-09T02:24:05;8.60;;;3.70;;
22610;SDS011;11472;45.494;12.142;2022-09-09T02:25:01;8.60;;;3.70;;
22610;SDS011;11472;45.494;12.142;2022-09-09T02:26:00;8.60;;;3.70;;
22610;SDS011;11472;45.494;12.142;2022-09-09T02:27:01;6.50;;;3.70;;
22610;SDS011;11472;45.494;12.142;2022-09-09T02:28:01;6.50;;;3.70;;
22610;SDS011;11472;45.494;12.142;2022-09-09T02:29:02;6.50;;;3.70;;
22610;SDS011;11472;45.494;12.142;2022-09-09T02:30:03;6.50;;;3.70;;
22610;SDS011;11472;45.494;12.142;2022-09-09T02:31:01;6.50;;;3.70;;
22610;SDS011;11472;45.494;12.142;2022-09-09T02:32:05;6.50;;;3.70;;
22610;SDS011;11472;45.494;12.142;2022-09-09T02:33:02;6.50;;;3.70;;
22610;SDS011;11472;45.494;12.142;2022-09-09T02:34:01;6.50;;;3.70;;
22610;SDS011;11472;45.494;12.142;2022-09-09T02:35:05;6.50;;;3.70;;
22610;SDS011;11472;45.494;12.142;2022-09-09T02:36:03;6.50;;;3.70;;
22610;SDS011;11472;45.494;12.142;2022-09-09T02:37:00;6.50;;;3.70;;
22610;SDS011;11472;45.494;12.142;2022-09-09T02:38:02;6.50;;;3.70;;
22610;SDS011;11472;45.494;12.142;2022-09-09T02:39:00;6.50;;;3.70;;
22610;SDS011;11472;45.494;12.142;2022-09-09T02:40:02;6.50;;;3.70;;
22610;SDS011;11472;45.494;12.142;2022-09-09T02:41:01;6.50;;;3.70;;
22610;SDS011;11472;45.494;12.142;2022-09-09T02:42:00;8.60;;;3.70;;
22610;SDS011;11472;45.494;12.142;2022-09-09T02:43:00;8.60;;;3.70;;
22610;SDS011;11472;45.494;12.142;2022-09-09T02:44:01;8.60;;;3.70;;
22610;SDS011;11472;45.494;12.142;2022-09-09T02:45:00;8.60;;;3.70;;
22610;SDS011;11472;45.494;12.142;2022-09-09T02:49:09;8.60;;;3.70;;
22610;SDS011;11472;45.494;12.142;2022-09-09T02:50:12;8.60;;;3.70;;
22610;SDS011;11472;45.494;12.142;2022-09-09T02:51:07;8.60;;;3.70;;
22610;SDS011;11472;45.494;12.142;2022-09-09T02:52:05;8.60;;;3.70;;
22610;SDS011;11472;45.494;12.142;2022-09-09T02:55:06;8.60;;;3.70;;
22610;SDS011;11472;45.494;12.142;2022-09-09T02:56:04;8.60;;;3.70;;
22610;SDS011;11472;45.494;12.142;2022-09-09T02:57:11;7.90;;;3.40;;
22610;SDS011;11472;45.494;12.142;2022-09-09T02:58:00;7.90;;;3.40;;
22610;SDS011;11472;45.494;12.142;2022-09-09T02:59:03;7.90;;;3.40;;
22610;SDS011;11472;45.494;12.142;2022-09-09T03:00:02;7.90;;;3.40;;
22610;SDS011;11472;45.494;12.142;2022-09-09T03:01:02;7.90;;;3.40;;
22610;SDS011;11472;45.494;12.142;2022-09-09T03:02:01;7.90;;;3.40;;
22610;SDS011;11472;45.494;12.142;2022-09-09T03:03:00;7.90;;;3.40;;
22610;SDS011;11472;45.494;12.142;2022-09-09T03:04:01;7.90;;;3.40;;
22610;SDS011;11472;45.494;12.142;2022-09-09T03:05:00;7.90;;;3.40;;
22610;SDS011;11472;45.494;12.142;2022-09-09T03:06:00;7.90;;;3.40;;
22610;SDS011;11472;45.494;12.142;2022-09-09T03:07:00;7.90;;;3.40;;
22610;SDS011;11472;45.494;12.142;2022-09-09T03:08:00;7.90;;;3.40;;
22610;SDS011;11472;45.494;12.142;2022-09-09T03:09:01;7.90;;;3.40;;
22610;SDS011;11472;45.494;12.142;2022-09-09T03:10:01;7.90;;;3.40;;
22610;SDS011;11472;45.494;12.142;2022-09-09T03:11:01;7.90;;;3.40;;
22610;SDS011;11472;45.494;12.142;2022-09-09T03:12:00;6.00;;;3.10;;
22610;SDS011;11472;45.494;12.142;2022-09-09T03:13:00;6.00;;;3.10;;
22610;SDS011;11472;45.494;12.142;2022-09-09T03:14:01;6.00;;;3.10;;
22610;SDS011;11472;45.494;12.142;2022-09-09T03:15:00;6.00;;;3.10;;
22610;SDS011;11472;45.494;12.142;2022-09-09T03:16:00;6.00;;;3.10;;
22610;SDS011;11472;45.494;12.142;2022-09-09T03:17:02;6.00;;;3.10;;
22610;SDS011;11472;45.494;12.142;2022-09-09T03:18:01;6.00;;;3.10;;
22610;SDS011;11472;45.494;12.142;2022-09-09T03:19:01;6.00;;;3.10;;
22610;SDS011;11472;45.494;12.142;2022-09-09T03:20:03;6.00;;;3.10;;
22610;SDS011;11472;45.494;12.142;2022-09-09T03:21:01;6.00;;;3.10;;
22610;SDS011;11472;45.494;12.142;2022-09-09T03:22:00;6.00;;;3.10;;
22610;SDS011;11472;45.494;12.142;2022-09-09T03:23:02;6.00;;;3.10;;
22610;SDS011;11472;45.494;12.142;2022-09-09T03:24:03;6.00;;;3.10;;
22610;SDS011;11472;45.494;12.142;2022-09-09T03:25:02;6.00;;;3.10;;
22610;SDS011;11472;45.494;12.142;2022-09-09T03:26:00;6.00;;;3.10;;
22610;SDS011;11472;45.494;12.142;2022-09-09T03:27:00;7.30;;;3.20;;
22610;SDS011;11472;45.494;12.142;2022-09-09T03:28:01;7.30;;;3.20;;
22610;SDS011;11472;45.494;12.142;2022-09-09T03:29:00;7.30;;;3.20;;
22610;SDS011;11472;45.494;12.142;2022-09-09T03:30:03;7.30;;;3.20;;
22610;SDS011;11472;45.494;12.142;2022-09-09T03:31:01;7.30;;;3.20;;
22610;SDS011;11472;45.494;12.142;2022-09-09T03:32:00;7.30;;;3.20;;
22610;SDS011;11472;45.494;12.142;2022-09-09T03:33:00;7.30;;;3.20;;
22610;SDS011;11472;45.494;12.142;2022-09-09T03:34:00;7.30;;;3.20;;
22610;SDS011;11472;45.494;12.142;2022-09-09T03:35:00;7.30;;;3.20;;
22610;SDS011;11472;45.494;12.142;2022-09-09T03:36:00;7.30;;;3.20;;
22610;SDS011;11472;45.494;12.142;2022-09-09T03:37:00;7.30;;;3.20;;
22610;SDS011;11472;45.494;12.142;2022-09-09T03:38:00;7.30;;;3.20;;
22610;SDS011;11472;45.494;12.142;2022-09-09T03:39:00;7.30;;;3.20;;
22610;SDS011;11472;45.494;12.142;2022-09-09T03:40:01;7.30;;;3.20;;
22610;SDS011;11472;45.494;12.142;2022-09-09T03:41:01;7.30;;;3.20;;
22610;SDS011;11472;45.494;12.142;2022-09-09T03:42:03;5.20;;;3.20;;
22610;SDS011;11472;45.494;12.142;2022-09-09T03:43:00;5.20;;;3.20;;
22610;SDS011;11472;45.494;12.142;2022-09-09T03:44:00;5.20;;;3.20;;
22610;SDS011;11472;45.494;12.142;2022-09-09T03:45:01;5.20;;;3.20;;
22610;SDS011;11472;45.494;12.142;2022-09-09T03:46:00;5.20;;;3.20;;
22610;SDS011;11472;45.494;12.142;2022-09-09T03:47:00;5.20;;;3.20;;
22610;SDS011;11472;45.494;12.142;2022-09-09T03:48:00;5.20;;;3.20;;
22610;SDS011;11472;45.494;12.142;2022-09-09T03:49:01;5.20;;;3.20;;
22610;SDS011;11472;45.494;12.142;2022-09-09T03:50:00;5.20;;;3.20;;
22610;SDS011;11472;45.494;12.142;2022-09-09T03:51:01;5.20;;;3.20;;
22610;SDS011;11472;45.494;12.142;2022-09-09T03:52:01;5.20;;;3.20;;
22610;SDS011;11472;45.494;12.142;2022-09-09T03:53:00;5.20;;;3.20;;
22610;SDS011;11472;45.494;12.142;2022-09-09T03:54:00;5.20;;;3.20;;
22610;SDS011;11472;45.494;12.142;2022-09-09T03:55:01;5.20;;;3.20;;
22610;SDS011;11472;45.494;12.142;2022-09-09T03:56:00;5.20;;;3.20;;
22610;SDS011;11472;45.494;12.142;2022-09-09T03:57:00;7.50;;;4.40;;
22610;SDS011;11472;45.494;12.142;2022-09-09T03:58:00;7.50;;;4.40;;
22610;SDS011;11472;45.494;12.142;2022-09-09T03:59:00;7.50;;;4.40;;
22610;SDS011;11472;45.494;12.142;2022-09-09T04:00:03;7.50;;;4.40;;
22610;SDS011;11472;45.494;12.142;2022-09-09T04:01:05;7.50;;;4.40;;
22610;SDS011;11472;45.494;12.142;2022-09-09T04:02:01;7.50;;;4.40;;
22610;SDS011;11472;45.494;12.142;2022-09-09T04:03:00;7.50;;;4.40;;
22610;SDS011;11472;45.494;12.142;2022-09-09T04:04:02;7.50;;;4.40;;
22610;SDS011;11472;45.494;12.142;2022-09-09T04:05:01;7.50;;;4.40;;
22610;SDS011;11472;45.494;12.142;2022-09-09T04:06:03;7.50;;;4.40;;
22610;SDS011;11472;45.494;12.142;2022-09-09T04:07:01;7.50;;;4.40;;
22610;SDS011;11472;45.494;12.142;2022-09-09T04:08:00;7.50;;;4.40;;
22610;SDS011;11472;45.494;12.142;2022-09-09T04:09:02;7.50;;;4.40;;
22610;SDS011;11472;45.494;12.142;2022-09-09T04:10:00;7.50;;;4.40;;
22610;SDS011;11472;45.494;12.142;2022-09-09T04:11:02;7.50;;;4.40;;
22610;SDS011;11472;45.494;12.142;2022-09-09T04:12:00;7.90;;;5.00;;
22610;SDS011;11472;45.494;12.142;2022-09-09T04:13:01;7.90;;;5.00;;
22610;SDS011;11472;45.494;12.142;2022-09-09T04:14:00;7.90;;;5.00;;
22610;SDS011;11472;45.494;12.142;2022-09-09T04:15:02;7.90;;;5.00;;
22610;SDS011;11472;45.494;12.142;2022-09-09T04:16:01;7.90;;;5.00;;
22610;SDS011;11472;45.494;12.142;2022-09-09T04:17:00;7.90;;;5.00;;
22610;SDS011;11472;45.494;12.142;2022-09-09T04:18:00;7.90;;;5.00;;
22610;SDS011;11472;45.494;12.142;2022-09-09T04:19:01;7.90;;;5.00;;
22610;SDS011;11472;45.494;12.142;2022-09-09T04:20:02;7.90;;;5.00;;
22610;SDS011;11472;45.494;12.142;2022-09-09T04:21:01;7.90;;;5.00;;
22610;SDS011;11472;45.494;12.142;2022-09-09T04:22:00;7.90;;;5.00;;
22610;SDS011;11472;45.494;12.142;2022-09-09T04:23:00;7.90;;;5.00;;
22610;SDS011;11472;45.494;12.142;2022-09-09T04:24:00;7.90;;;5.00;;
22610;SDS011;11472;45.494;12.142;2022-09-09T04:25:00;7.90;;;5.00;;
22610;SDS011;11472;45.494;12.142;2022-09-09T04:26:01;7.90;;;5.00;;
22610;SDS011;11472;45.494;12.142;2022-09-09T04:27:00;11.70;;;5.60;;
22610;SDS011;11472;45.494;12.142;2022-09-09T04:28:00;11.70;;;5.60;;
22610;SDS011;11472;45.494;12.142;2022-09-09T04:29:00;11.70;;;5.60;;
22610;SDS011;11472;45.494;12.142;2022-09-09T04:30:00;11.70;;;5.60;;
22610;SDS011;11472;45.494;12.142;2022-09-09T04:31:10;11.70;;;5.60;;
22610;SDS011;11472;45.494;12.142;2022-09-09T04:32:00;11.70;;;5.60;;
22610;SDS011;11472;45.494;12.142;2022-09-09T04:33:00;11.70;;;5.60;;
22610;SDS011;11472;45.494;12.142;2022-09-09T04:34:05;11.70;;;5.60;;
22610;SDS011;11472;45.494;12.142;2022-09-09T04:35:01;11.70;;;5.60;;
22610;SDS011;11472;45.494;12.142;2022-09-09T04:36:00;11.70;;;5.60;;
22610;SDS011;11472;45.494;12.142;2022-09-09T04:37:01;11.70;;;5.60;;
22610;SDS011;11472;45.494;12.142;2022-09-09T04:38:02;11.70;;;5.60;;
22610;SDS011;11472;45.494;12.142;2022-09-09T04:39:01;11.70;;;5.60;;
22610;SDS011;11472;45.494;12.142;2022-09-09T04:40:04;11.70;;;5.60;;
22610;SDS011;11472;45.494;12.142;2022-09-09T04:41:01;11.70;;;5.60;;
22610;SDS011;11472;45.494;12.142;2022-09-09T04:42:00;7.90;;;5.60;;
22610;SDS011;11472;45.494;12.142;2022-09-09T04:43:01;7.90;;;5.60;;
22610;SDS011;11472;45.494;12.142;2022-09-09T04:44:00;7.90;;;5.60;;
22610;SDS011;11472;45.494;12.142;2022-09-09T04:45:01;7.90;;;5.60;;
22610;SDS011;11472;45.494;12.142;2022-09-09T04:46:00;7.90;;;5.60;;
22610;SDS011;11472;45.494;12.142;2022-09-09T04:47:00;7.90;;;5.60;;
22610;SDS011;11472;45.494;12.142;2022-09-09T04:48:00;7.90;;;5.60;;
22610;SDS011;11472;45.494;12.142;2022-09-09T04:49:00;7.90;;;5.60;;
22610;SDS011;11472;45.494;12.142;2022-09-09T04:50:00;7.90;;;5.60;;
22610;SDS011;11472;45.494;12.142;2022-09-09T04:51:03;7.90;;;5.60;;
22610;SDS011;11472;45.494;12.142;2022-09-09T04:52:01;7.90;;;5.60;;
22610;SDS011;11472;45.494;12.142;2022-09-09T04:53:02;7.90;;;5.60;;
22610;SDS011;11472;45.494;12.142;2022-09-09T04:54:00;7.90;;;5.60;;
22610;SDS011;11472;45.494;12.142;2022-09-09T04:55:00;7.90;;;5.60;;
22610;SDS011;11472;45.494;12.142;2022-09-09T04:56:02;7.90;;;5.60;;
22610;SDS011;11472;45.494;12.142;2022-09-09T04:57:00;11.80;;;5.80;;
22610;SDS011;11472;45.494;12.142;2022-09-09T04:58:05;11.80;;;5.80;;
22610;SDS011;11472;45.494;12.142;2022-09-09T04:59:02;11.80;;;5.80;;
22610;SDS011;11472;45.494;12.142;2022-09-09T05:00:02;11.80;;;5.80;;
22610;SDS011;11472;45.494;12.142;2022-09-09T05:01:05;11.80;;;5.80;;
22610;SDS011;11472;45.494;12.142;2022-09-09T05:02:02;11.80;;;5.80;;
22610;SDS011;11472;45.494;12.142;2022-09-09T05:03:04;11.80;;;5.80;;
22610;SDS011;11472;45.494;12.142;2022-09-09T05:04:01;11.80;;;5.80;;
22610;SDS011;11472;45.494;12.142;2022-09-09T05:05:00;11.80;;;5.80;;
22610;SDS011;11472;45.494;12.142;2022-09-09T05:06:10;11.80;;;5.80;;
22610;SDS011;11472;45.494;12.142;2022-09-09T05:07:00;11.80;;;5.80;;
22610;SDS011;11472;45.494;12.142;2022-09-09T05:08:03;11.80;;;5.80;;
22610;SDS011;11472;45.494;12.142;2022-09-09T05:09:00;11.80;;;5.80;;
22610;SDS011;11472;45.494;12.142;2022-09-09T05:10:00;11.80;;;5.80;;
22610;SDS011;11472;45.494;12.142;2022-09-09T05:11:00;11.80;;;5.80;;
22610;SDS011;11472;45.494;12.142;2022-09-09T05:12:00;11.30;;;5.50;;
22610;SDS011;11472;45.494;12.142;2022-09-09T05:13:00;11.30;;;5.50;;
22610;SDS011;11472;45.494;12.142;2022-09-09T05:14:01;11.30;;;5.50;;
22610;SDS011;11472;45.494;12.142;2022-09-09T05:15:00;11.30;;;5.50;;
22610;SDS011;11472;45.494;12.142;2022-09-09T05:16:00;11.30;;;5.50;;
22610;SDS011;11472;45.494;12.142;2022-09-09T05:17:00;11.30;;;5.50;;
22610;SDS011;11472;45.494;12.142;2022-09-09T05:18:01;11.30;;;5.50;;
22610;SDS011;11472;45.494;12.142;2022-09-09T05:19:02;11.30;;;5.50;;
22610;SDS011;11472;45.494;12.142;2022-09-09T05:20:01;11.30;;;5.50;;
22610;SDS011;11472;45.494;12.142;2022-09-09T05:21:00;11.30;;;5.50;;
22610;SDS011;11472;45.494;12.142;2022-09-09T05:22:01;11.30;;;5.50;;
22610;SDS011;11472;45.494;12.142;2022-09-09T05:23:00;11.30;;;5.50;;
22610;SDS011;11472;45.494;12.142;2022-09-09T05:24:00;11.30;;;5.50;;
22610;SDS011;11472;45.494;12.142;2022-09-09T05:25:01;11.30;;;5.50;;
22610;SDS011;11472;45.494;12.142;2022-09-09T05:26:00;11.30;;;5.50;;
22610;SDS011;11472;45.494;12.142;2022-09-09T05:27:02;7.20;;;4.50;;
22610;SDS011;11472;45.494;12.142;2022-09-09T05:28:00;7.20;;;4.50;;
22610;SDS011;11472;45.494;12.142;2022-09-09T05:29:01;7.20;;;4.50;;
22610;SDS011;11472;45.494;12.142;2022-09-09T05:30:00;7.20;;;4.50;;
22610;SDS011;11472;45.494;12.142;2022-09-09T05:31:05;7.20;;;4.50;;
22610;SDS011;11472;45.494;12.142;2022-09-09T05:32:00;7.20;;;4.50;;
22610;SDS011;11472;45.494;12.142;2022-09-09T05:33:00;7.20;;;4.50;;
22610;SDS011;11472;45.494;12.142;2022-09-09T05:34:00;7.20;;;4.50;;
22610;SDS011;11472;45.494;12.142;2022-09-09T05:35:01;7.20;;;4.50;;
22610;SDS011;11472;45.494;12.142;2022-09-09T05:36:03;7.20;;;4.50;;
22610;SDS011;11472;45.494;12.142;2022-09-09T05:37:00;7.20;;;4.50;;
22610;SDS011;11472;45.494;12.142;2022-09-09T05:38:01;7.20;;;4.50;;
22610;SDS011;11472;45.494;12.142;2022-09-09T05:39:01;7.20;;;4.50;;
22610;SDS011;11472;45.494;12.142;2022-09-09T05:40:01;7.20;;;4.50;;
22610;SDS011;11472;45.494;12.142;2022-09-09T05:41:01;7.20;;;4.50;;
22610;SDS011;11472;45.494;12.142;2022-09-09T05:42:01;7.20;;;4.50;;
22610;SDS011;11472;45.494;12.142;2022-09-09T05:43:01;8.80;;;4.50;;
22610;SDS011;11472;45.494;12.142;2022-09-09T05:44:01;8.80;;;4.50;;
22610;SDS011;11472;45.494;12.142;2022-09-09T05:45:00;8.80;;;4.50;;
22610;SDS011;11472;45.494;12.142;2022-09-09T05:46:05;8.80;;;4.50;;
22610;SDS011;11472;45.494;12.142;2022-09-09T05:47:00;8.80;;;4.50;;
22610;SDS011;11472;45.494;12.142;2022-09-09T05:48:01;8.80;;;4.50;;
22610;SDS011;11472;45.494;12.142;2022-09-09T05:49:01;8.80;;;4.50;;
22610;SDS011;11472;45.494;12.142;2022-09-09T05:50:00;8.80;;;4.50;;
22610;SDS011;11472;45.494;12.142;2022-09-09T05:51:01;8.80;;;4.50;;
22610;SDS011;11472;45.494;12.142;2022-09-09T05:52:00;8.80;;;4.50;;
22610;SDS011;11472;45.494;12.142;2022-09-09T05:53:03;8.80;;;4.50;;
22610;SDS011;11472;45.494;12.142;2022-09-09T05:54:00;8.80;;;4.50;;
22610;SDS011;11472;45.494;12.142;2022-09-09T05:55:00;8.80;;;4.50;;
22610;SDS011;11472;45.494;12.142;2022-09-09T05:57:00;8.80;;;4.50;;
22610;SDS011;11472;45.494;12.142;2022-09-09T05:58:01;10.40;;;5.80;;
22610;SDS011;11472;45.494;12.142;2022-09-09T05:59:01;10.40;;;5.80;;
22610;SDS011;11472;45.494;12.142;2022-09-09T06:00:00;10.40;;;5.80;;
22610;SDS011;11472;45.494;12.142;2022-09-09T06:02:00;10.40;;;5.80;;
22610;SDS011;11472;45.494;12.142;2022-09-09T06:03:00;10.40;;;5.80;;
22610;SDS011;11472;45.494;12.142;2022-09-09T06:04:00;10.40;;;5.80;;
22610;SDS011;11472;45.494;12.142;2022-09-09T06:05:01;10.40;;;5.80;;
22610;SDS011;11472;45.494;12.142;2022-09-09T06:06:02;10.40;;;5.80;;
22610;SDS011;11472;45.494;12.142;2022-09-09T06:07:01;10.40;;;5.80;;
22610;SDS011;11472;45.494;12.142;2022-09-09T06:08:00;10.40;;;5.80;;
22610;SDS011;11472;45.494;12.142;2022-09-09T06:09:00;10.40;;;5.80;;
22610;SDS011;11472;45.494;12.142;2022-09-09T06:10:00;10.40;;;5.80;;
22610;SDS011;11472;45.494;12.142;2022-09-09T06:11:03;10.40;;;5.80;;
22610;SDS011;11472;45.494;12.142;2022-09-09T06:12:00;10.40;;;5.80;;
22610;SDS011;11472;45.494;12.142;2022-09-09T06:13:00;7.60;;;4.40;;
22610;SDS011;11472;45.494;12.142;2022-09-09T06:14:00;7.60;;;4.40;;
22610;SDS011;11472;45.494;12.142;2022-09-09T06:15:00;7.60;;;4.40;;
22610;SDS011;11472;45.494;12.142;2022-09-09T06:16:00;7.60;;;4.40;;
22610;SDS011;11472;45.494;12.142;2022-09-09T06:17:02;7.60;;;4.40;;
22610;SDS011;11472;45.494;12.142;2022-09-09T06:18:00;7.60;;;4.40;;
22610;SDS011;11472;45.494;12.142;2022-09-09T06:19:01;7.60;;;4.40;;
22610;SDS011;11472;45.494;12.142;2022-09-09T06:20:00;7.60;;;4.40;;
22610;SDS011;11472;45.494;12.142;2022-09-09T06:21:04;7.60;;;4.40;;
22610;SDS011;11472;45.494;12.142;2022-09-09T06:22:00;7.60;;;4.40;;
22610;SDS011;11472;45.494;12.142;2022-09-09T06:23:00;7.60;;;4.40;;
22610;SDS011;11472;45.494;12.142;2022-09-09T06:24:02;7.60;;;4.40;;
22610;SDS011;11472;45.494;12.142;2022-09-09T06:25:01;7.60;;;4.40;;
22610;SDS011;11472;45.494;12.142;2022-09-09T06:26:07;7.60;;;4.40;;
22610;SDS011;11472;45.494;12.142;2022-09-09T06:27:00;7.60;;;4.40;;
22610;SDS011;11472;45.494;12.142;2022-09-09T06:28:02;7.90;;;4.10;;
22610;SDS011;11472;45.494;12.142;2022-09-09T06:29:03;7.90;;;4.10;;
22610;SDS011;11472;45.494;12.142;2022-09-09T06:30:00;7.90;;;4.10;;
22610;SDS011;11472;45.494;12.142;2022-09-09T06:31:04;7.90;;;4.10;;
22610;SDS011;11472;45.494;12.142;2022-09-09T06:32:01;7.90;;;4.10;;
22610;SDS011;11472;45.494;12.142;2022-09-09T06:33:01;7.90;;;4.10;;
22610;SDS011;11472;45.494;12.142;2022-09-09T06:34:01;7.90;;;4.10;;
22610;SDS011;11472;45.494;12.142;2022-09-09T06:35:01;7.90;;;4.10;;
22610;SDS011;11472;45.494;12.142;2022-09-09T06:36:01;7.90;;;4.10;;
22610;SDS011;11472;45.494;12.142;2022-09-09T06:37:00;7.90;;;4.10;;